sensor_id;sensor_type;location;lat;lon;timestamp;P1;durP1;ratioP1;P2;durP2;ratioP2
15393;SDS011;7795;47.986;11.868;2022-08-03T00:01:16;1.13;;;1.03;;
15393;SDS011;7795;47.986;11.868;2022-08-03T00:03:42;0.80;;;0.80;;
15393;SDS011;7795;47.986;11.868;2022-08-03T00:06:08;1.90;;;1.10;;
15393;SDS011;7795;47.986;11.868;2022-08-03T00:08:34;1.30;;;1.00;;
15393;SDS011;7795;47.986;11.868;2022-08-03T00:11:00;0.93;;;0.93;;
15393;SDS011;7795;47.986;11.868;2022-08-03T00:13:26;1.23;;;0.80;;
15393;SDS011;7795;47.986;11.868;2022-08-03T00:15:52;1.10;;;1.00;;
15393;SDS011;7795;47.986;11.868;2022-08-03T00:18:19;0.93;;;0.87;;
15393;SDS011;7795;47.986;11.868;2022-08-03T00:20:45;1.37;;;1.10;;
15393;SDS011;7795;47.986;11.868;2022-08-03T00:23:11;1.73;;;1.17;;
15393;SDS011;7795;47.986;11.868;2022-08-03T00:25:37;1.10;;;1.00;;
15393;SDS011;7795;47.986;11.868;2022-08-03T00:28:03;1.40;;;1.03;;
15393;SDS011;7795;47.986;11.868;2022-08-03T00:30:30;1.10;;;1.00;;
15393;SDS011;7795;47.986;11.868;2022-08-03T00:32:56;1.90;;;1.00;;
15393;SDS011;7795;47.986;11.868;2022-08-03T00:35:24;3.13;;;1.77;;
15393;SDS011;7795;47.986;11.868;2022-08-03T00:37:50;17.47;;;15.87;;
15393;SDS011;7795;47.986;11.868;2022-08-03T00:40:16;13.83;;;12.63;;
15393;SDS011;7795;47.986;11.868;2022-08-03T00:42:47;40.30;;;36.70;;
15393;SDS011;7795;47.986;11.868;2022-08-03T00:45:15;27.00;;;24.50;;
15393;SDS011;7795;47.986;11.868;2022-08-03T00:47:42;33.63;;;30.53;;
15393;SDS011;7795;47.986;11.868;2022-08-03T00:50:07;30.13;;;27.40;;
15393;SDS011;7795;47.986;11.868;2022-08-03T00:52:35;22.70;;;20.63;;
15393;SDS011;7795;47.986;11.868;2022-08-03T00:55:01;13.43;;;12.23;;
15393;SDS011;7795;47.986;11.868;2022-08-03T00:57:27;10.30;;;9.30;;
15393;SDS011;7795;47.986;11.868;2022-08-03T00:59:54;6.63;;;6.03;;
15393;SDS011;7795;47.986;11.868;2022-08-03T01:02:20;4.40;;;3.40;;
15393;SDS011;7795;47.986;11.868;2022-08-03T01:04:46;2.50;;;2.30;;
15393;SDS011;7795;47.986;11.868;2022-08-03T01:07:14;2.00;;;1.70;;
15393;SDS011;7795;47.986;11.868;2022-08-03T01:09:56;1.20;;;1.10;;
15393;SDS011;7795;47.986;11.868;2022-08-03T01:12:28;1.97;;;0.80;;
15393;SDS011;7795;47.986;11.868;2022-08-03T01:15:02;0.60;;;0.60;;
15393;SDS011;7795;47.986;11.868;2022-08-03T01:17:35;2.83;;;1.07;;
15393;SDS011;7795;47.986;11.868;2022-08-03T01:20:08;0.90;;;0.90;;
15393;SDS011;7795;47.986;11.868;2022-08-03T01:22:59;1.47;;;0.80;;
15393;SDS011;7795;47.986;11.868;2022-08-03T01:25:51;1.57;;;1.20;;
15393;SDS011;7795;47.986;11.868;2022-08-03T01:28:39;1.00;;;0.90;;
15393;SDS011;7795;47.986;11.868;2022-08-03T01:31:20;1.20;;;0.97;;
15393;SDS011;7795;47.986;11.868;2022-08-03T01:33:54;2.97;;;1.10;;
15393;SDS011;7795;47.986;11.868;2022-08-03T01:36:25;1.20;;;1.10;;
15393;SDS011;7795;47.986;11.868;2022-08-03T01:38:54;1.37;;;1.20;;
15393;SDS011;7795;47.986;11.868;2022-08-03T01:41:24;2.40;;;1.20;;
15393;SDS011;7795;47.986;11.868;2022-08-03T01:43:54;1.30;;;0.90;;
15393;SDS011;7795;47.986;11.868;2022-08-03T01:46:25;1.27;;;1.10;;
15393;SDS011;7795;47.986;11.868;2022-08-03T01:48:51;1.10;;;1.00;;
15393;SDS011;7795;47.986;11.868;2022-08-03T01:51:19;1.10;;;1.00;;
15393;SDS011;7795;47.986;11.868;2022-08-03T01:53:46;1.90;;;1.00;;
15393;SDS011;7795;47.986;11.868;2022-08-03T01:56:14;1.23;;;1.00;;
15393;SDS011;7795;47.986;11.868;2022-08-03T01:58:41;1.67;;;1.13;;
15393;SDS011;7795;47.986;11.868;2022-08-03T02:01:10;3.10;;;1.00;;
15393;SDS011;7795;47.986;11.868;2022-08-03T02:03:39;1.47;;;0.70;;
15393;SDS011;7795;47.986;11.868;2022-08-03T02:06:08;1.60;;;1.10;;
15393;SDS011;7795;47.986;11.868;2022-08-03T02:08:36;0.80;;;0.80;;
15393;SDS011;7795;47.986;11.868;2022-08-03T02:11:03;0.90;;;0.90;;
15393;SDS011;7795;47.986;11.868;2022-08-03T02:13:31;1.27;;;0.90;;
15393;SDS011;7795;47.986;11.868;2022-08-03T02:15:58;1.37;;;1.00;;
15393;SDS011;7795;47.986;11.868;2022-08-03T02:18:25;1.53;;;1.20;;
15393;SDS011;7795;47.986;11.868;2022-08-03T02:20:53;1.40;;;1.20;;
15393;SDS011;7795;47.986;11.868;2022-08-03T02:23:19;2.53;;;1.60;;
15393;SDS011;7795;47.986;11.868;2022-08-03T02:25:46;2.27;;;2.10;;
15393;SDS011;7795;47.986;11.868;2022-08-03T02:28:25;1.33;;;1.27;;
15393;SDS011;7795;47.986;11.868;2022-08-03T02:30:56;1.30;;;1.20;;
15393;SDS011;7795;47.986;11.868;2022-08-03T02:33:25;2.00;;;1.27;;
15393;SDS011;7795;47.986;11.868;2022-08-03T02:35:55;1.00;;;0.90;;
15393;SDS011;7795;47.986;11.868;2022-08-03T02:38:25;1.17;;;0.90;;
15393;SDS011;7795;47.986;11.868;2022-08-03T02:40:55;1.00;;;0.90;;
15393;SDS011;7795;47.986;11.868;2022-08-03T02:43:22;2.13;;;0.90;;
15393;SDS011;7795;47.986;11.868;2022-08-03T02:45:50;1.77;;;1.30;;
15393;SDS011;7795;47.986;11.868;2022-08-03T02:48:17;2.10;;;0.87;;
15393;SDS011;7795;47.986;11.868;2022-08-03T02:50:47;1.87;;;1.20;;
15393;SDS011;7795;47.986;11.868;2022-08-03T02:53:17;1.37;;;0.90;;
15393;SDS011;7795;47.986;11.868;2022-08-03T02:55:45;1.30;;;0.90;;
15393;SDS011;7795;47.986;11.868;2022-08-03T02:58:13;1.07;;;0.80;;
15393;SDS011;7795;47.986;11.868;2022-08-03T03:00:41;0.93;;;0.80;;
15393;SDS011;7795;47.986;11.868;2022-08-03T03:03:09;1.13;;;0.90;;
15393;SDS011;7795;47.986;11.868;2022-08-03T03:05:35;0.57;;;0.57;;
15393;SDS011;7795;47.986;11.868;2022-08-03T03:08:02;0.90;;;0.90;;
15393;SDS011;7795;47.986;11.868;2022-08-03T03:10:30;1.13;;;0.70;;
15393;SDS011;7795;47.986;11.868;2022-08-03T03:12:56;0.60;;;0.60;;
15393;SDS011;7795;47.986;11.868;2022-08-03T03:15:24;0.50;;;0.50;;
15393;SDS011;7795;47.986;11.868;2022-08-03T03:17:51;1.40;;;0.60;;
15393;SDS011;7795;47.986;11.868;2022-08-03T03:20:18;0.40;;;0.40;;
15393;SDS011;7795;47.986;11.868;2022-08-03T03:22:45;0.60;;;0.57;;
15393;SDS011;7795;47.986;11.868;2022-08-03T03:25:12;0.60;;;0.60;;
15393;SDS011;7795;47.986;11.868;2022-08-03T03:27:39;0.57;;;0.57;;
15393;SDS011;7795;47.986;11.868;2022-08-03T03:30:06;0.77;;;0.77;;
15393;SDS011;7795;47.986;11.868;2022-08-03T03:32:33;1.20;;;0.90;;
15393;SDS011;7795;47.986;11.868;2022-08-03T03:35:01;0.80;;;0.80;;
15393;SDS011;7795;47.986;11.868;2022-08-03T03:37:27;1.73;;;0.83;;
15393;SDS011;7795;47.986;11.868;2022-08-03T03:39:52;0.77;;;0.70;;
15393;SDS011;7795;47.986;11.868;2022-08-03T03:42:18;1.40;;;1.10;;
15393;SDS011;7795;47.986;11.868;2022-08-03T03:44:46;1.20;;;0.80;;
15393;SDS011;7795;47.986;11.868;2022-08-03T03:47:12;0.90;;;0.90;;
15393;SDS011;7795;47.986;11.868;2022-08-03T03:49:38;1.67;;;1.00;;
15393;SDS011;7795;47.986;11.868;2022-08-03T03:52:05;2.10;;;0.77;;
15393;SDS011;7795;47.986;11.868;2022-08-03T03:54:38;1.27;;;0.80;;
15393;SDS011;7795;47.986;11.868;2022-08-03T03:57:05;1.67;;;1.00;;
15393;SDS011;7795;47.986;11.868;2022-08-03T03:59:31;1.53;;;1.20;;
15393;SDS011;7795;47.986;11.868;2022-08-03T04:01:58;1.00;;;1.00;;
15393;SDS011;7795;47.986;11.868;2022-08-03T04:04:24;0.83;;;0.80;;
15393;SDS011;7795;47.986;11.868;2022-08-03T04:07:08;1.97;;;0.77;;
15393;SDS011;7795;47.986;11.868;2022-08-03T04:09:52;1.00;;;0.90;;
15393;SDS011;7795;47.986;11.868;2022-08-03T04:12:42;1.00;;;0.90;;
15393;SDS011;7795;47.986;11.868;2022-08-03T04:15:11;1.10;;;0.90;;
15393;SDS011;7795;47.986;11.868;2022-08-03T04:17:38;0.90;;;0.63;;
15393;SDS011;7795;47.986;11.868;2022-08-03T04:20:07;1.00;;;0.90;;
15393;SDS011;7795;47.986;11.868;2022-08-03T04:22:34;1.50;;;0.90;;
15393;SDS011;7795;47.986;11.868;2022-08-03T04:25:02;1.10;;;1.00;;
15393;SDS011;7795;47.986;11.868;2022-08-03T04:27:33;1.30;;;0.90;;
15393;SDS011;7795;47.986;11.868;2022-08-03T04:30:03;0.90;;;0.90;;
15393;SDS011;7795;47.986;11.868;2022-08-03T04:32:30;1.30;;;1.00;;
15393;SDS011;7795;47.986;11.868;2022-08-03T04:34:59;1.57;;;1.23;;
15393;SDS011;7795;47.986;11.868;2022-08-03T04:37:25;1.00;;;0.90;;
15393;SDS011;7795;47.986;11.868;2022-08-03T04:39:59;0.80;;;0.80;;
15393;SDS011;7795;47.986;11.868;2022-08-03T04:42:26;1.10;;;0.70;;
15393;SDS011;7795;47.986;11.868;2022-08-03T04:44:54;0.90;;;0.90;;
15393;SDS011;7795;47.986;11.868;2022-08-03T04:47:21;1.00;;;1.00;;
15393;SDS011;7795;47.986;11.868;2022-08-03T04:49:47;1.47;;;1.00;;
15393;SDS011;7795;47.986;11.868;2022-08-03T04:52:15;1.30;;;1.20;;
15393;SDS011;7795;47.986;11.868;2022-08-03T04:54:41;1.00;;;0.90;;
15393;SDS011;7795;47.986;11.868;2022-08-03T04:57:08;0.73;;;0.70;;
15393;SDS011;7795;47.986;11.868;2022-08-03T04:59:34;2.17;;;0.97;;
15393;SDS011;7795;47.986;11.868;2022-08-03T05:02:00;1.37;;;1.03;;
15393;SDS011;7795;47.986;11.868;2022-08-03T05:04:26;3.23;;;1.13;;
15393;SDS011;7795;47.986;11.868;2022-08-03T05:06:51;1.63;;;0.93;;
15393;SDS011;7795;47.986;11.868;2022-08-03T05:09:18;0.63;;;0.63;;
15393;SDS011;7795;47.986;11.868;2022-08-03T05:11:44;3.00;;;0.97;;
15393;SDS011;7795;47.986;11.868;2022-08-03T05:14:10;1.33;;;1.17;;
15393;SDS011;7795;47.986;11.868;2022-08-03T05:16:36;1.60;;;1.13;;
15393;SDS011;7795;47.986;11.868;2022-08-03T05:19:02;3.67;;;0.93;;
15393;SDS011;7795;47.986;11.868;2022-08-03T05:21:27;2.00;;;1.10;;
15393;SDS011;7795;47.986;11.868;2022-08-03T05:23:53;1.77;;;1.20;;
15393;SDS011;7795;47.986;11.868;2022-08-03T05:26:20;1.00;;;0.83;;
15393;SDS011;7795;47.986;11.868;2022-08-03T05:28:46;1.50;;;1.30;;
15393;SDS011;7795;47.986;11.868;2022-08-03T05:31:12;1.60;;;1.10;;
15393;SDS011;7795;47.986;11.868;2022-08-03T05:33:37;2.00;;;1.07;;
15393;SDS011;7795;47.986;11.868;2022-08-03T05:36:03;1.20;;;1.10;;
15393;SDS011;7795;47.986;11.868;2022-08-03T05:38:30;1.40;;;1.30;;
15393;SDS011;7795;47.986;11.868;2022-08-03T05:40:56;1.20;;;1.10;;
15393;SDS011;7795;47.986;11.868;2022-08-03T05:43:23;1.30;;;1.20;;
15393;SDS011;7795;47.986;11.868;2022-08-03T05:45:49;1.10;;;1.00;;
15393;SDS011;7795;47.986;11.868;2022-08-03T05:48:15;3.23;;;1.40;;
15393;SDS011;7795;47.986;11.868;2022-08-03T05:50:41;2.00;;;1.07;;
15393;SDS011;7795;47.986;11.868;2022-08-03T05:53:06;1.10;;;1.00;;
15393;SDS011;7795;47.986;11.868;2022-08-03T05:55:32;1.53;;;1.43;;
15393;SDS011;7795;47.986;11.868;2022-08-03T05:57:58;1.40;;;1.20;;
15393;SDS011;7795;47.986;11.868;2022-08-03T06:00:25;3.10;;;1.57;;
15393;SDS011;7795;47.986;11.868;2022-08-03T06:02:51;1.57;;;1.07;;
15393;SDS011;7795;47.986;11.868;2022-08-03T06:05:16;1.20;;;1.00;;
15393;SDS011;7795;47.986;11.868;2022-08-03T06:07:42;5.47;;;1.60;;
15393;SDS011;7795;47.986;11.868;2022-08-03T06:10:08;2.07;;;1.30;;
15393;SDS011;7795;47.986;11.868;2022-08-03T06:12:34;3.10;;;1.07;;
15393;SDS011;7795;47.986;11.868;2022-08-03T06:15:00;2.13;;;1.10;;
15393;SDS011;7795;47.986;11.868;2022-08-03T06:17:28;1.13;;;1.00;;
15393;SDS011;7795;47.986;11.868;2022-08-03T06:19:54;1.33;;;1.10;;
15393;SDS011;7795;47.986;11.868;2022-08-03T06:22:20;1.13;;;1.03;;
15393;SDS011;7795;47.986;11.868;2022-08-03T06:24:46;1.30;;;1.20;;
15393;SDS011;7795;47.986;11.868;2022-08-03T06:27:11;1.37;;;1.00;;
15393;SDS011;7795;47.986;11.868;2022-08-03T06:29:37;5.27;;;1.17;;
15393;SDS011;7795;47.986;11.868;2022-08-03T06:32:03;1.40;;;1.10;;
15393;SDS011;7795;47.986;11.868;2022-08-03T06:34:31;2.30;;;1.17;;
15393;SDS011;7795;47.986;11.868;2022-08-03T06:36:56;1.87;;;1.13;;
15393;SDS011;7795;47.986;11.868;2022-08-03T06:39:22;1.20;;;1.10;;
15393;SDS011;7795;47.986;11.868;2022-08-03T06:41:48;1.93;;;1.10;;
15393;SDS011;7795;47.986;11.868;2022-08-03T06:44:14;1.60;;;1.20;;
15393;SDS011;7795;47.986;11.868;2022-08-03T06:46:39;2.33;;;1.20;;
15393;SDS011;7795;47.986;11.868;2022-08-03T06:49:06;1.20;;;1.10;;
15393;SDS011;7795;47.986;11.868;2022-08-03T06:51:33;2.27;;;1.00;;
15393;SDS011;7795;47.986;11.868;2022-08-03T06:53:59;1.57;;;1.33;;
15393;SDS011;7795;47.986;11.868;2022-08-03T06:56:25;1.27;;;1.17;;
15393;SDS011;7795;47.986;11.868;2022-08-03T06:58:50;1.27;;;1.17;;
15393;SDS011;7795;47.986;11.868;2022-08-03T07:01:16;1.30;;;1.00;;
15393;SDS011;7795;47.986;11.868;2022-08-03T07:03:42;2.00;;;1.20;;
15393;SDS011;7795;47.986;11.868;2022-08-03T07:06:08;1.45;;;1.27;;
15393;SDS011;7795;47.986;11.868;2022-08-03T07:08:35;1.88;;;1.15;;
15393;SDS011;7795;47.986;11.868;2022-08-03T07:11:01;1.13;;;1.02;;
15393;SDS011;7795;47.986;11.868;2022-08-03T07:13:27;1.02;;;0.90;;
15393;SDS011;7795;47.986;11.868;2022-08-03T07:15:52;1.53;;;1.33;;
15393;SDS011;7795;47.986;11.868;2022-08-03T07:18:18;2.83;;;1.20;;
15393;SDS011;7795;47.986;11.868;2022-08-03T07:20:44;2.30;;;1.00;;
15393;SDS011;7795;47.986;11.868;2022-08-03T07:23:10;1.60;;;1.25;;
15393;SDS011;7795;47.986;11.868;2022-08-03T07:25:37;1.35;;;1.25;;
15393;SDS011;7795;47.986;11.868;2022-08-03T07:28:03;1.30;;;1.20;;
15393;SDS011;7795;47.986;11.868;2022-08-03T07:30:29;1.20;;;1.10;;
15393;SDS011;7795;47.986;11.868;2022-08-03T07:32:55;1.73;;;1.40;;
15393;SDS011;7795;47.986;11.868;2022-08-03T07:35:20;2.30;;;1.05;;
15393;SDS011;7795;47.986;11.868;2022-08-03T07:37:47;1.42;;;1.10;;
15393;SDS011;7795;47.986;11.868;2022-08-03T07:40:12;2.10;;;1.40;;
15393;SDS011;7795;47.986;11.868;2022-08-03T07:42:39;1.20;;;1.10;;
15393;SDS011;7795;47.986;11.868;2022-08-03T07:45:06;1.10;;;1.00;;
15393;SDS011;7795;47.986;11.868;2022-08-03T07:47:32;1.50;;;1.30;;
15393;SDS011;7795;47.986;11.868;2022-08-03T07:49:59;2.65;;;1.20;;
15393;SDS011;7795;47.986;11.868;2022-08-03T07:52:24;1.20;;;1.10;;
15393;SDS011;7795;47.986;11.868;2022-08-03T07:55:08;1.65;;;1.40;;
15393;SDS011;7795;47.986;11.868;2022-08-03T07:57:35;3.97;;;1.13;;
15393;SDS011;7795;47.986;11.868;2022-08-03T08:00:03;2.90;;;1.38;;
15393;SDS011;7795;47.986;11.868;2022-08-03T08:02:31;3.20;;;1.40;;
15393;SDS011;7795;47.986;11.868;2022-08-03T08:04:56;1.67;;;1.20;;
15393;SDS011;7795;47.986;11.868;2022-08-03T08:07:22;1.55;;;1.20;;
15393;SDS011;7795;47.986;11.868;2022-08-03T08:09:50;2.03;;;1.10;;
15393;SDS011;7795;47.986;11.868;2022-08-03T08:12:15;1.17;;;1.00;;
15393;SDS011;7795;47.986;11.868;2022-08-03T08:14:41;1.35;;;1.23;;
15393;SDS011;7795;47.986;11.868;2022-08-03T08:17:12;1.08;;;1.02;;
15393;SDS011;7795;47.986;11.868;2022-08-03T08:19:38;5.65;;;1.42;;
15393;SDS011;7795;47.986;11.868;2022-08-03T08:22:04;2.63;;;1.20;;
15393;SDS011;7795;47.986;11.868;2022-08-03T08:24:30;1.20;;;1.10;;
15393;SDS011;7795;47.986;11.868;2022-08-03T08:26:58;2.88;;;1.17;;
15393;SDS011;7795;47.986;11.868;2022-08-03T08:29:24;1.20;;;1.10;;
15393;SDS011;7795;47.986;11.868;2022-08-03T08:31:49;1.60;;;0.98;;
15393;SDS011;7795;47.986;11.868;2022-08-03T08:34:16;2.15;;;1.10;;
15393;SDS011;7795;47.986;11.868;2022-08-03T08:36:42;1.40;;;0.85;;
15393;SDS011;7795;47.986;11.868;2022-08-03T08:39:08;1.27;;;1.17;;
15393;SDS011;7795;47.986;11.868;2022-08-03T08:41:34;1.88;;;1.00;;
15393;SDS011;7795;47.986;11.868;2022-08-03T08:44:00;2.50;;;1.30;;
15393;SDS011;7795;47.986;11.868;2022-08-03T08:46:26;1.80;;;1.40;;
15393;SDS011;7795;47.986;11.868;2022-08-03T08:48:56;1.70;;;0.90;;
15393;SDS011;7795;47.986;11.868;2022-08-03T08:51:26;1.30;;;1.20;;
15393;SDS011;7795;47.986;11.868;2022-08-03T08:53:54;1.35;;;1.10;;
15393;SDS011;7795;47.986;11.868;2022-08-03T08:56:22;3.10;;;1.33;;
15393;SDS011;7795;47.986;11.868;2022-08-03T08:58:50;0.98;;;0.88;;
15393;SDS011;7795;47.986;11.868;2022-08-03T09:01:20;1.10;;;1.00;;
15393;SDS011;7795;47.986;11.868;2022-08-03T09:03:46;0.80;;;0.80;;
15393;SDS011;7795;47.986;11.868;2022-08-03T09:06:12;1.45;;;0.85;;
15393;SDS011;7795;47.986;11.868;2022-08-03T09:08:40;1.45;;;0.88;;
15393;SDS011;7795;47.986;11.868;2022-08-03T09:11:06;2.90;;;1.10;;
15393;SDS011;7795;47.986;11.868;2022-08-03T09:13:32;1.33;;;0.80;;
15393;SDS011;7795;47.986;11.868;2022-08-03T09:16:08;2.13;;;1.00;;
15393;SDS011;7795;47.986;11.868;2022-08-03T09:18:36;1.15;;;0.90;;
15393;SDS011;7795;47.986;11.868;2022-08-03T09:21:11;2.67;;;1.25;;
15393;SDS011;7795;47.986;11.868;2022-08-03T09:23:44;1.90;;;1.10;;
15393;SDS011;7795;47.986;11.868;2022-08-03T09:26:11;1.67;;;0.98;;
15393;SDS011;7795;47.986;11.868;2022-08-03T09:28:37;1.73;;;0.88;;
15393;SDS011;7795;47.986;11.868;2022-08-03T09:31:04;1.00;;;0.90;;
15393;SDS011;7795;47.986;11.868;2022-08-03T09:33:32;1.98;;;0.77;;
15393;SDS011;7795;47.986;11.868;2022-08-03T09:36:10;1.67;;;0.90;;
15393;SDS011;7795;47.986;11.868;2022-08-03T09:39:05;1.60;;;0.98;;
15393;SDS011;7795;47.986;11.868;2022-08-03T09:41:34;0.60;;;0.60;;
15393;SDS011;7795;47.986;11.868;2022-08-03T09:44:01;1.45;;;0.60;;
15393;SDS011;7795;47.986;11.868;2022-08-03T09:46:27;1.77;;;0.80;;
15393;SDS011;7795;47.986;11.868;2022-08-03T09:49:07;0.80;;;0.80;;
15393;SDS011;7795;47.986;11.868;2022-08-03T09:51:34;1.40;;;0.63;;
15393;SDS011;7795;47.986;11.868;2022-08-03T09:54:00;1.70;;;0.80;;
15393;SDS011;7795;47.986;11.868;2022-08-03T09:56:42;0.88;;;0.80;;
15393;SDS011;7795;47.986;11.868;2022-08-03T09:59:09;2.40;;;1.02;;
15393;SDS011;7795;47.986;11.868;2022-08-03T10:01:36;0.77;;;0.77;;
15393;SDS011;7795;47.986;11.868;2022-08-03T10:04:05;1.02;;;0.93;;
15393;SDS011;7795;47.986;11.868;2022-08-03T10:06:36;0.82;;;0.70;;
15393;SDS011;7795;47.986;11.868;2022-08-03T10:09:06;0.88;;;0.70;;
15393;SDS011;7795;47.986;11.868;2022-08-03T10:11:33;2.05;;;0.80;;
15393;SDS011;7795;47.986;11.868;2022-08-03T10:14:01;0.85;;;0.73;;
15393;SDS011;7795;47.986;11.868;2022-08-03T10:16:29;2.70;;;0.82;;
15393;SDS011;7795;47.986;11.868;2022-08-03T10:18:58;1.30;;;1.00;;
15393;SDS011;7795;47.986;11.868;2022-08-03T10:21:23;1.27;;;1.05;;
15393;SDS011;7795;47.986;11.868;2022-08-03T10:23:52;1.60;;;0.70;;
15393;SDS011;7795;47.986;11.868;2022-08-03T10:26:20;1.92;;;0.70;;
15393;SDS011;7795;47.986;11.868;2022-08-03T10:28:49;1.25;;;0.80;;
15393;SDS011;7795;47.986;11.868;2022-08-03T10:31:20;1.00;;;0.90;;
15393;SDS011;7795;47.986;11.868;2022-08-03T10:33:48;1.23;;;0.80;;
15393;SDS011;7795;47.986;11.868;2022-08-03T10:36:15;0.60;;;0.60;;
15393;SDS011;7795;47.986;11.868;2022-08-03T10:38:42;0.85;;;0.60;;
15393;SDS011;7795;47.986;11.868;2022-08-03T10:41:11;0.90;;;0.80;;
15393;SDS011;7795;47.986;11.868;2022-08-03T10:43:40;0.95;;;0.80;;
15393;SDS011;7795;47.986;11.868;2022-08-03T10:46:13;3.25;;;1.00;;
15393;SDS011;7795;47.986;11.868;2022-08-03T10:48:42;0.80;;;0.70;;
15393;SDS011;7795;47.986;11.868;2022-08-03T10:51:09;1.38;;;0.70;;
15393;SDS011;7795;47.986;11.868;2022-08-03T10:53:35;0.47;;;0.47;;
15393;SDS011;7795;47.986;11.868;2022-08-03T10:56:02;2.13;;;0.80;;
15393;SDS011;7795;47.986;11.868;2022-08-03T10:58:51;1.27;;;0.47;;
15393;SDS011;7795;47.986;11.868;2022-08-03T11:01:17;2.13;;;0.70;;
15393;SDS011;7795;47.986;11.868;2022-08-03T11:06:45;2.25;;;0.70;;
15393;SDS011;7795;47.986;11.868;2022-08-03T11:09:16;1.08;;;0.60;;
15393;SDS011;7795;47.986;11.868;2022-08-03T11:11:43;1.15;;;0.68;;
15393;SDS011;7795;47.986;11.868;2022-08-03T11:14:11;0.90;;;0.60;;
15393;SDS011;7795;47.986;11.868;2022-08-03T11:16:39;0.95;;;0.90;;
15393;SDS011;7795;47.986;11.868;2022-08-03T11:19:07;1.13;;;1.02;;
15393;SDS011;7795;47.986;11.868;2022-08-03T11:21:53;0.93;;;0.73;;
15393;SDS011;7795;47.986;11.868;2022-08-03T11:27:22;1.25;;;0.70;;
15393;SDS011;7795;47.986;11.868;2022-08-03T11:29:52;1.52;;;0.75;;
15393;SDS011;7795;47.986;11.868;2022-08-03T11:35:17;0.50;;;0.50;;
15393;SDS011;7795;47.986;11.868;2022-08-03T11:40:31;1.38;;;0.65;;
15393;SDS011;7795;47.986;11.868;2022-08-03T11:42:58;0.60;;;0.60;;
15393;SDS011;7795;47.986;11.868;2022-08-03T11:45:24;0.52;;;0.52;;
15393;SDS011;7795;47.986;11.868;2022-08-03T11:47:50;0.98;;;0.60;;
15393;SDS011;7795;47.986;11.868;2022-08-03T11:50:19;1.02;;;0.70;;
15393;SDS011;7795;47.986;11.868;2022-08-03T11:52:46;0.57;;;0.57;;
15393;SDS011;7795;47.986;11.868;2022-08-03T11:55:15;1.23;;;0.80;;
15393;SDS011;7795;47.986;11.868;2022-08-03T11:57:42;0.55;;;0.55;;
15393;SDS011;7795;47.986;11.868;2022-08-03T12:00:24;0.82;;;0.60;;
15393;SDS011;7795;47.986;11.868;2022-08-03T12:02:55;1.67;;;0.75;;
15393;SDS011;7795;47.986;11.868;2022-08-03T12:05:31;0.60;;;0.60;;
15393;SDS011;7795;47.986;11.868;2022-08-03T12:07:58;0.95;;;0.60;;
15393;SDS011;7795;47.986;11.868;2022-08-03T12:10:25;0.93;;;0.73;;
15393;SDS011;7795;47.986;11.868;2022-08-03T12:12:54;1.95;;;0.60;;
15393;SDS011;7795;47.986;11.868;2022-08-03T12:15:23;1.30;;;0.70;;
15393;SDS011;7795;47.986;11.868;2022-08-03T12:17:50;0.85;;;0.70;;
15393;SDS011;7795;47.986;11.868;2022-08-03T12:20:19;1.05;;;0.70;;
15393;SDS011;7795;47.986;11.868;2022-08-03T12:22:47;1.25;;;0.60;;
15393;SDS011;7795;47.986;11.868;2022-08-03T12:25:19;1.10;;;0.65;;
15393;SDS011;7795;47.986;11.868;2022-08-03T12:27:47;1.10;;;0.60;;
15393;SDS011;7795;47.986;11.868;2022-08-03T12:30:13;0.77;;;0.63;;
15393;SDS011;7795;47.986;11.868;2022-08-03T12:32:41;1.48;;;0.60;;
15393;SDS011;7795;47.986;11.868;2022-08-03T12:35:08;1.10;;;0.50;;
15393;SDS011;7795;47.986;11.868;2022-08-03T12:37:34;0.70;;;0.55;;
15393;SDS011;7795;47.986;11.868;2022-08-03T12:40:01;0.50;;;0.50;;
15393;SDS011;7795;47.986;11.868;2022-08-03T12:42:30;0.90;;;0.50;;
15393;SDS011;7795;47.986;11.868;2022-08-03T12:44:57;0.70;;;0.63;;
15393;SDS011;7795;47.986;11.868;2022-08-03T12:47:23;0.75;;;0.60;;
15393;SDS011;7795;47.986;11.868;2022-08-03T12:49:50;0.60;;;0.60;;
15393;SDS011;7795;47.986;11.868;2022-08-03T12:52:18;0.63;;;0.60;;
15393;SDS011;7795;47.986;11.868;2022-08-03T12:54:53;0.60;;;0.60;;
15393;SDS011;7795;47.986;11.868;2022-08-03T12:57:19;0.68;;;0.50;;
15393;SDS011;7795;47.986;11.868;2022-08-03T12:59:45;1.48;;;0.60;;
15393;SDS011;7795;47.986;11.868;2022-08-03T13:02:14;1.17;;;0.68;;
15393;SDS011;7795;47.986;11.868;2022-08-03T13:04:41;0.60;;;0.60;;
15393;SDS011;7795;47.986;11.868;2022-08-03T13:07:08;0.85;;;0.63;;
15393;SDS011;7795;47.986;11.868;2022-08-03T13:09:40;0.60;;;0.60;;
15393;SDS011;7795;47.986;11.868;2022-08-03T13:12:08;0.90;;;0.70;;
15393;SDS011;7795;47.986;11.868;2022-08-03T13:14:35;1.02;;;0.50;;
15393;SDS011;7795;47.986;11.868;2022-08-03T13:17:01;1.42;;;0.80;;
15393;SDS011;7795;47.986;11.868;2022-08-03T13:19:28;1.42;;;0.60;;
15393;SDS011;7795;47.986;11.868;2022-08-03T13:21:55;1.05;;;0.70;;
15393;SDS011;7795;47.986;11.868;2022-08-03T13:24:21;0.88;;;0.60;;
15393;SDS011;7795;47.986;11.868;2022-08-03T13:26:47;2.30;;;1.15;;
15393;SDS011;7795;47.986;11.868;2022-08-03T13:29:13;0.80;;;0.80;;
15393;SDS011;7795;47.986;11.868;2022-08-03T13:31:39;0.80;;;0.80;;
15393;SDS011;7795;47.986;11.868;2022-08-03T13:34:04;1.23;;;0.55;;
15393;SDS011;7795;47.986;11.868;2022-08-03T13:36:31;0.68;;;0.50;;
15393;SDS011;7795;47.986;11.868;2022-08-03T13:38:57;1.63;;;0.70;;
15393;SDS011;7795;47.986;11.868;2022-08-03T13:41:23;3.50;;;0.60;;
15393;SDS011;7795;47.986;11.868;2022-08-03T13:43:49;2.05;;;0.70;;
15393;SDS011;7795;47.986;11.868;2022-08-03T13:46:14;0.93;;;0.60;;
15393;SDS011;7795;47.986;11.868;2022-08-03T13:48:40;1.48;;;0.63;;
15393;SDS011;7795;47.986;11.868;2022-08-03T13:51:06;1.23;;;0.60;;
15393;SDS011;7795;47.986;11.868;2022-08-03T13:53:33;3.28;;;0.65;;
15393;SDS011;7795;47.986;11.868;2022-08-03T13:55:59;0.75;;;0.75;;
15393;SDS011;7795;47.986;11.868;2022-08-03T13:58:24;1.40;;;0.50;;
15393;SDS011;7795;47.986;11.868;2022-08-03T14:00:50;1.35;;;0.60;;
15393;SDS011;7795;47.986;11.868;2022-08-03T14:03:16;1.25;;;0.63;;
15393;SDS011;7795;47.986;11.868;2022-08-03T14:05:42;0.60;;;0.50;;
15393;SDS011;7795;47.986;11.868;2022-08-03T14:08:08;1.10;;;0.70;;
15393;SDS011;7795;47.986;11.868;2022-08-03T14:10:36;1.02;;;0.65;;
15393;SDS011;7795;47.986;11.868;2022-08-03T14:13:04;0.50;;;0.47;;
15393;SDS011;7795;47.986;11.868;2022-08-03T14:15:30;2.13;;;0.50;;
15393;SDS011;7795;47.986;11.868;2022-08-03T14:17:57;0.57;;;0.40;;
15393;SDS011;7795;47.986;11.868;2022-08-03T14:20:22;0.47;;;0.45;;
15393;SDS011;7795;47.986;11.868;2022-08-03T14:22:48;0.68;;;0.45;;
15393;SDS011;7795;47.986;11.868;2022-08-03T14:25:14;0.52;;;0.50;;
15393;SDS011;7795;47.986;11.868;2022-08-03T14:27:41;0.47;;;0.47;;
15393;SDS011;7795;47.986;11.868;2022-08-03T14:30:07;0.50;;;0.50;;
15393;SDS011;7795;47.986;11.868;2022-08-03T14:32:34;1.13;;;0.60;;
15393;SDS011;7795;47.986;11.868;2022-08-03T14:34:59;0.40;;;0.40;;
15393;SDS011;7795;47.986;11.868;2022-08-03T14:37:25;1.17;;;0.60;;
15393;SDS011;7795;47.986;11.868;2022-08-03T14:39:51;1.05;;;0.60;;
15393;SDS011;7795;47.986;11.868;2022-08-03T14:42:17;0.60;;;0.50;;
15393;SDS011;7795;47.986;11.868;2022-08-03T14:44:45;0.70;;;0.52;;
15393;SDS011;7795;47.986;11.868;2022-08-03T14:47:11;0.80;;;0.50;;
15393;SDS011;7795;47.986;11.868;2022-08-03T14:49:37;1.05;;;0.85;;
15393;SDS011;7795;47.986;11.868;2022-08-03T14:52:03;4.28;;;0.60;;
15393;SDS011;7795;47.986;11.868;2022-08-03T14:54:29;0.40;;;0.40;;
15393;SDS011;7795;47.986;11.868;2022-08-03T14:56:55;0.77;;;0.40;;
15393;SDS011;7795;47.986;11.868;2022-08-03T14:59:21;1.27;;;0.55;;
15393;SDS011;7795;47.986;11.868;2022-08-03T15:01:48;1.00;;;0.60;;
15393;SDS011;7795;47.986;11.868;2022-08-03T15:04:14;1.55;;;0.70;;